Valley Peak, Santa Cruz Island Reserve, California Weather observations

Data are for 10 minute period ending at time listed.
 Day   Time   Solar   Ave.   Ave.  Ave.  Vector  Max.   Baro.   Total    
  of    of     Rad.   Air    Rel.  Wind   Wind   Wind  Press.  Precip.   
Year   Day            Temp.  Hum.  Speed  Dir.   Gust                    
2014   (PST)  Kw/m2    F      %     mph   deg.    mph    mb.     in.     
-------------------------------------------------------------------------
 205    9:30   0.80   84.1    45    1.5    43     4.3   962.8    0.00 
 205    9:40   0.82   84.8    44    1.7    56     3.2   962.9    0.00 
 205    9:50   0.84   85.2    44    2.1   228     4.6   962.8    0.00 
 205   10:00   0.86   86.0    44    1.7    70     3.7   962.8    0.00 
 205   10:10   0.88   87.9    42    2.1    54     4.8   962.7    0.00 
 205   10:20   0.89   88.4    41    2.1    56     5.5   962.8    0.00 
 205   10:30   0.90   88.8    41    2.5    72     5.4   962.9    0.00 
 205   10:40   0.91   88.0    42    4.3    51     7.1   962.8    0.00 
 205   10:50   0.92   86.4    44    6.2    37    10.3   962.9    0.00 
 205   11:00   0.94   83.2    47    8.8    34    11.8   962.8    0.00 
 205   11:10   0.94   83.1    46    9.9    36    14.3   962.6    0.00 
 205   11:20   0.95   81.7    46    9.1    36    12.9   962.5    0.00 
 205   11:30   0.95   83.0    43    9.1    39    12.9   962.4    0.00 
 205   11:40   0.96   83.9    42    8.6    41    12.3   962.5    0.00 
 205   11:50   0.96   84.0    42    8.5    39    12.9   962.4    0.00 
 205   12:00   0.97   84.2    41    8.1    37    11.9   962.5    0.00 
 205   12:10   0.97   84.2    42    8.0    34    11.5   962.4    0.00 
 205   12:20   0.96   84.3    41    8.1    36    11.5   962.4    0.00 
 205   12:30   0.95   84.5    41    7.5    42    11.0   962.4    0.00 
 205   12:40   0.95   86.6    39    7.3    44    11.0   962.4    0.00 
 205   12:50   0.95   87.4    37    6.5    41     9.3   962.4    0.00 
 205   13:00   0.94   88.2    36    6.3    42    10.2   962.3    0.00 
 205   13:10   0.93   88.8    36    5.3    33     9.3   962.3    0.00 
 205   13:20   0.92   87.9    37    4.7    44     7.3   962.3    0.00 
 205   13:30   0.90   89.6    36    3.3    37     6.5   962.2    0.00 
 205   13:40   0.89   89.6    36    4.9    38     8.5   962.0    0.00 
 205   13:50   0.87   89.7    36    5.3    50     8.9   962.0    0.00 
 205   14:00   0.85   90.2    35    4.9    50     7.5   961.9    0.00 
 205   14:10   0.84   91.8    34    3.4    47     6.6   961.8    0.00 
 205   14:20   0.82   93.3    33    3.7    49     7.7   961.7    0.00 
 205   14:30   0.79   90.8    35    5.8    40     8.8   961.5    0.00 
 205   14:40   0.77   90.7    35    5.7    35     8.7   961.4    0.00 
 205   14:50   0.74   90.2    35    6.4    34     8.8   961.2    0.00 
 205   15:00   0.72   88.7    36    6.5    35    10.7   961.1    0.00 
 205   15:10   0.69   89.3    35    6.8    36    10.2   960.9    0.00 
 205   15:20   0.66   88.4    36    5.7    28     8.7   960.8    0.00 
 205   15:30   0.63   87.9    36    4.9    14     8.0   960.7    0.00 
 205   15:40   0.60   88.0    35    7.5    26    10.4   960.6    0.00 
 205   15:50   0.57   86.5    36    7.3    28    11.3   960.5    0.00 
 205   16:00   0.54   86.4    36    8.6    31    11.8   960.4    0.00 
 205   16:10   0.51   84.7    38    7.6    20    11.1   960.4    0.00 
 205   16:20   0.48   84.3    37   10.5    17    14.4   960.3    0.00 
 205   16:30   0.44   83.7    38   12.4    21    16.7   960.1    0.00 
 205   16:40   0.41   83.4    38   12.1    25    16.1   960.0    0.00 
 205   16:50   0.37   82.7    38   13.0    26    16.9   959.9    0.00 
 205   17:00   0.34   81.8    39   12.7    18    18.0   959.8    0.00 
 205   17:10   0.31   80.5    41   12.0    12    15.9   959.8    0.00 
 205   17:20   0.27   80.5    40   12.0     8    17.0   959.7    0.00 
 205   17:30   0.24   81.0    39   13.2   356    17.3   959.6    0.00 
 205   17:40   0.21   80.9    39   12.5   358    19.8   959.6    0.00 
 205   17:50   0.17   79.7    40   13.6     2    17.1   959.5    0.00 
 205   18:00   0.14   79.6    39   12.7   356    16.2   959.3    0.00 
 205   18:10   0.12   81.2    36   13.6   358    17.0   959.4    0.00 
 205   18:20   0.09   80.1    37   13.8   352    17.6   959.3    0.00 
 205   18:30   0.07   79.1    38   13.9   353    21.2   959.2    0.00 
 205   18:40   0.04   80.0    36   13.4   358    18.4   959.1    0.00 
 205   18:50   0.02   79.4    35   13.1   356    17.8   959.1    0.00 
 205   19:00   0.00   76.8    39   13.2     8    19.7   959.1    0.00 
 205   19:10   0.00   79.1    34   12.8   353    17.5   959.2    0.00 
 205   19:20   0.00   79.5    33   14.2   354    23.5   959.2    0.00 
 205   19:30   0.00   79.7    32   12.8     1    20.8   959.2    0.00 
 205   19:40   0.00   78.7    32   13.8   358    21.7   959.3    0.00 
 205   19:50   0.00   79.4    32   12.1   358    17.5   959.4    0.00 
 205   20:00   0.00   78.5    32   12.1     8    17.6   959.6    0.00 
 205   20:10   0.00   79.2    31   11.0   358    16.3   959.8    0.00 
 205   20:20   0.00   78.8    31   13.0    10    18.5   959.8    0.00 
 205   20:30   0.00   78.7    31   14.0    12    19.6   959.9    0.00 
 205   20:40   0.00   78.7    30   12.0    13    17.0   960.0    0.00 
 205   20:50   0.00   78.8    30   13.3    16    20.5   960.0    0.00 
 205   21:00   0.00   79.0    29   11.3     1    17.1   960.0    0.00 
 205   21:10   0.00   78.7    28   11.4     3    16.0   960.0    0.00 
 205   21:20   0.00   77.4    32   10.2    15    13.8   960.1    0.00 
 205   21:30   0.00   73.8    39   10.4    21    14.6   960.2    0.00 
 205   21:40   0.00   74.8    36   11.3    10    17.0   960.2    0.00 
 205   21:50   0.00   75.2    35    9.3    18    12.2   960.2    0.00 
 205   22:00   0.00   74.3    36    8.2    23    11.1   960.2    0.00 
 205   22:10   0.00   74.3    36    7.1    27    11.1   960.2    0.00 
 205   22:20   0.00   74.1    36    7.2    42    10.5   960.4    0.00 
 205   22:30   0.00   73.1    39    7.7    48    12.6   960.5    0.00 
 205   22:40   0.00   73.5    38   10.3    16    14.9   960.4    0.00 
 205   22:50   0.00   76.5    34   14.3     0    18.9   960.2    0.00 
 205   23:00   0.00   76.2    35   11.5   359    14.7   960.3    0.00 
 205   23:10   0.00   74.6    38    6.0    16    10.2   960.5    0.00 
 205   23:20   0.00   75.0    37    4.8     1     6.0   960.5    0.00 
 205   23:30   0.00   74.5    38    4.8     3     5.9   960.6    0.00 
 205   23:40   0.00   75.4    36    3.5   356     6.3   960.6    0.00 
 205   23:50   0.00   75.8    36    3.9   355     6.4   960.8    0.00 
 206    0:00   0.00   75.4    36    4.5   340     7.2   960.8    0.00 
 206    0:10   0.00   74.5    38    2.5   236     4.2   960.9    0.00 
 206    0:20   0.00   72.0    44    4.0   183     4.7   960.9    0.00 
 206    0:30   0.00   71.0    44    5.2   183     6.9   960.9    0.00 
 206    0:40   0.00   71.5    44    6.3   197     8.2   960.9    0.00 
 206    0:50   0.00   70.6    46    6.9   230     7.6   960.8    0.00 
 206    1:00   0.00   69.4    49    7.0   195     7.8   960.8    0.00 
 206    1:10   0.00   67.4    54    5.5   185     7.5   960.8    0.00 
 206    1:20   0.00   67.0    56    6.1   208     7.3   960.9    0.00 
 206    1:30   0.00   66.3    67    7.7   170     8.8   961.0    0.00 
 206    1:40   0.00   64.1    80    9.3   163    10.4   961.1    0.00 
 206    1:50   0.00   63.0    86    9.5   154    11.5   961.2    0.00 
 206    2:00   0.00   62.5    90    9.7   149    12.1   961.3    0.00 
 206    2:10   0.00   62.3    92   10.2   147    14.2   961.4    0.00 
 206    2:20   0.00   61.9    94   11.4   145    14.7   961.4    0.00 
 206    2:30   0.00   61.8    95   12.6   147    15.4   961.4    0.00 
 206    2:40   0.00   61.6    96   13.3   163    14.8   961.4    0.00 
 206    2:50   0.00   61.2    97   12.3   173    13.4   961.4    0.00 
 206    3:00   0.00   60.8    97    9.9   192    11.7   961.5    0.00 
 206    3:10   0.00   60.0    95    9.1   217    10.7   961.5    0.00 
 206    3:20   0.00   60.3    96    9.5   217    10.9   961.5    0.00 
 206    3:30   0.00   60.4    96    9.1   218    10.3   961.6    0.00 
 206    3:40   0.00   60.3    93    7.8   219    10.3   961.6    0.00 
 206    3:50   0.00   61.2    92    6.9   212     8.6   961.7    0.00 
 206    4:00   0.00   61.0    94    6.8   232     9.1   961.9    0.00 
 206    4:10   0.00   61.0    93    4.8   220     8.3   961.9    0.00 
 206    4:20   0.00   60.8    94    3.1   207     5.1   962.0    0.00 
 206    4:30   0.00   61.1    91    4.2   176     5.8   962.0    0.00 
 206    4:40   0.00   61.2    91    3.7   175     5.4   962.0    0.00 
 206    4:50   0.00   60.4    93    3.2   128     4.7   962.2    0.00 
 206    5:00   0.00   59.8    95    1.8   137     3.9   962.3    0.00 
 206    5:10   0.00   59.9    97    5.4   119     7.8   962.3    0.00 
 206    5:20   0.01   59.8    96   10.8    96    15.2   962.3    0.00 
 206    5:30   0.03   60.2    88   11.8    98    16.4   962.3    0.00 
 206    5:40   0.06   61.2    86    9.5    85    12.9   962.3    0.00 
 206    5:50   0.09   62.5    83    7.9    76    11.9   962.5    0.00 
 206    6:00   0.11   63.1    81    8.1    92    14.1   962.6    0.00 
 206    6:10   0.15   63.2    82   12.4    98    19.5   962.6    0.00 
 206    6:20   0.18   64.1    80   10.2    89    15.1   962.7    0.00 
 206    6:30   0.21   64.8    81   11.2    87    18.6   962.8    0.00 
 206    6:40   0.24   65.3    81   11.9    91    19.1   962.9    0.00 
 206    6:50   0.28   66.1    81   10.8    90    18.1   962.9    0.00 
 206    7:00   0.32   66.8    81   10.3    99    15.5   963.0    0.00 
 206    7:10   0.35   66.8    81    7.5    97    14.3   963.1    0.00 
 206    7:20   0.38   67.4    79    4.9    98     8.5   963.1    0.00 
 206    7:30   0.42   68.2    77    6.8   103    10.7   963.1    0.00 
 206    7:40   0.46   68.0    78    5.6   110     8.7   963.2    0.00 
 206    7:50   0.46   68.1    79    5.3   112     8.3   963.3    0.00 
 206    8:00   0.39   68.3    80    5.7   111     9.6   963.3    0.00 
 206    8:10   0.46   68.3    80    5.7   108     9.3   963.3    0.00 
 206    8:20   0.58   69.6    77    5.8   112     9.6   963.3    0.00 
 206    8:30   0.52   70.5    75    6.2   120    11.1   963.3    0.00 
 206    8:40   0.52   70.1    77    7.2   112    12.5   963.3    0.00 
 206    8:50   0.57   70.7    76    6.6   111    10.9   963.3    0.00 
 206    9:00   0.51   71.3    75    7.0   114    11.5   963.4    0.00 
 206    9:10   0.48   71.8    74    6.2   118    12.9   963.4    0.00 
 206    9:20   0.56   72.3    74    6.6   118    11.6   963.5    0.00 

Return to Valley Peak, Santa Cruz Island Reserve graphs page.


Western Regional Climate Center,wrcc@dri.edu